• Join FlightAware (Why Join?)
  • Login
  • US Flag 
02:23PM EDT


 

Airport Tracker/Info


-or-


 

Live Flight TrackerFlight Track Log ✈ ASQ4283 ✈ 28-Oct-2013 ✈ KIAH - KELP

Flight Track Log - Related Links

Times and Time Zones

All times are in EDT time to prevent confusion due to time zone crossing. See the ASQ4283 flight status page for this flight to view local times or setup timezone preferences in your user account.

Time Position Orientation Groundspeed Altitude Reporting Facility
EDT Latitude Longitude Course Direction KTS MPH feet Rate Location/Type
04:06PM 29.9617 -95.3436 279° West 161 185 700  Level Houston Center
04:07PM 29.9114 -95.3906 219° Southwest 246 283 2,800 1,800 Climbing Houston Center
04:08PM 29.9036 -95.4039 236° Southwest 242 278 3,500 3,120 Climbing Houston Center
04:08PM 29.8725 -95.4483 231° Southwest 255 293 5,700 3,180 Climbing Houston Center
04:09PM 29.8611 -95.4669 235° Southwest 251 289 6,800 2,400 Climbing Houston Center
04:10PM 30.0704 -95.7518 276° West  Level Estimated
04:10PM 29.8344 -95.5397 247° West 264 304 9,200  Level Houston Center
04:11PM 30.0917 -95.8545 319° Northwest  Level Estimated
04:11PM 29.8764 -95.6358 297° West 281 323 12,000  Level Houston Center
04:12PM 30.1129 -95.9573 279° West  Level Estimated
04:12PM 29.9158 -95.7178 299° West 292 336 14,100  Level Houston Center
04:13PM 29.9725 -95.7928 311° West 308 354 15,900 900 Climbing Houston Center
04:14PM 30.0183 -95.8728 304° West 301 346 16,000 180 Climbing Houston Center
04:15PM 30.0375 -95.9722 283° West 316 364 16,300 720 Climbing Houston Center
04:16PM 30.0647 -96.0869 285° West 339 390 17,600 1,200 Climbing Houston Center
04:17PM 30.0892 -96.1953 285° West 348 400 18,900 1,380 Climbing Houston Center
04:18PM 30.1092 -96.3050 282° West 351 404 20,500 1,500 Climbing Houston Center
04:19PM 30.1267 -96.4286 279° West 353 406 22,100 1,440 Climbing Houston Center
04:20PM 30.1439 -96.5397 280° West 349 402 23,500 1,380 Climbing Houston Center
04:21PM 30.1636 -96.6517 282° West 351 404 25,000 1,500 Climbing Houston Center
04:22PM 30.1900 -96.7794 283° West 347 399 26,700 1,500 Climbing Houston Center
04:23PM 30.2117 -96.8897 283° West 348 400 28,200 1,380 Climbing Houston Center
04:25PM 30.2409 -97.0306 282° West  Level Estimated
04:25PM 30.2533 -97.1067 282° West 340 391 31,100  Level Houston Center
04:26PM 30.2750 -97.2136 283° West 339 390 32,600 1,320 Climbing Houston Center
04:27PM 30.2944 -97.3194 282° West 333 383 33,900 660 Climbing Houston Center
04:28PM 30.3158 -97.4267 283° West 337 388 34,000  Climbing Houston Center
04:29PM 30.3383 -97.5458 282° West 369 425 34,000  Level Houston Center
04:30PM 30.3653 -97.6894 282° West 385 443 34,000  Level Houston Center
04:31PM 30.3875 -97.8142 282° West 390 449 34,000  Level Houston Center
04:33PM 30.4122 -97.9381 283° West 390 449 34,000  Level Houston Center
04:34PM 30.4344 -98.0614 282° West 389 448 34,000  Level Houston Center
04:35PM 30.4575 -98.1844 282° West 388 447 34,000  Level Houston Center
04:36PM 30.4803 -98.3075 282° West 387 445 34,000  Level Houston Center
04:37PM 30.5033 -98.4308 282° West 387 445 34,000  Level Houston Center
04:38PM 30.5258 -98.5536 282° West 385 443 34,000  Level Houston Center
04:39PM 30.5514 -98.6992 282° West 390 449 34,000  Level Houston Center
04:40PM 30.5750 -98.8233 282° West 391 450 34,000  Level Houston Center
04:41PM 30.5972 -98.9481 282° West 391 450 34,000  Level Houston Center
04:42PM 30.6197 -99.0725 282° West 392 451 34,000  Level Houston Center
04:43PM 30.6411 -99.1892 282° West 392 451 34,000  Level Houston Center
04:44PM 30.6669 -99.3364 282° West 390 449 34,000  Level Houston Center
04:45PM 30.6875 -99.4608 281° West 392 451 34,000  Level Houston Center
04:46PM 30.7092 -99.5842 282° West 392 451 34,000  Level Houston Center
04:47PM 30.7314 -99.7075 282° West 393 452 34,000  Level Houston Center
04:48PM 30.7517 -99.8306 281° West 391 450 34,000  Level Houston Center
04:49PM 30.7761 -99.9783 281° West 391 450 34,000  Level Houston Center
04:50PM 30.7975 -100.1022 281° West 392 451 34,000  Level Houston Center
04:51PM 30.8186 -100.2256 281° West 391 450 34,000  Level Houston Center
04:52PM 30.8394 -100.3503 281° West 393 452 34,000  Level Houston Center
04:53PM 30.8594 -100.4739 281° West 392 451 34,000  Level Houston Center
04:54PM 30.8847 -100.6236 281° West 395 455 34,000  Level Houston Center
04:55PM 30.9050 -100.7475 281° West 393 452 34,000  Level Houston Center
04:56PM 30.9250 -100.8725 281° West 394 453 34,000  Level Houston Center
04:57PM 30.9453 -100.9961 281° West 391 450 34,000  Level Houston Center
04:58PM 30.9644 -101.1208 280° West 392 451 34,000  Level Houston Center
04:59PM 30.9847 -101.2450 281° West 392 451 34,000  Level Houston Center
05:00PM 31.0064 -101.3833 280° West 390 449 34,000  Level Houston Center
05:02PM 31.0267 -101.5083 281° West 392 451 34,000  Level Houston Center
05:03PM 31.0464 -101.6311 281° West 389 448 34,000  Level Houston Center
05:04PM 31.0694 -101.7833 280° West 394 453 34,000  Level Houston Center
05:05PM 31.0889 -101.9072 280° West 391 450 34,000  Level Houston Center
05:06PM 31.1075 -102.0311 280° West 388 447 34,000  Level Houston Center
05:07PM 31.1261 -102.1569 280° West 390 449 34,000  Level Houston Center
05:08PM 31.1444 -102.2839 280° West 390 449 34,000 -240 Level Houston Center
05:09PM 31.1614 -102.3961 280° West 390 449 33,600 -1,140 Descending Albuquerque Center
05:10PM 31.1831 -102.5414 280° West 382 440 31,800 -1,620 Descending Albuquerque Center
05:11PM 31.2008 -102.6628 280° West 389 448 30,300 -900 Descending Albuquerque Center
05:12PM 31.2206 -102.7925 280° West 401 461 30,000 -180 Descending Albuquerque Center
05:13PM 31.2392 -102.9197 280° West 400 460 30,000  Level Albuquerque Center
05:14PM 31.2578 -103.0472 280° West 399 459 30,000  Level Albuquerque Center
05:15PM 31.2786 -103.2019 279° West 401 461 30,000 -420 Level Albuquerque Center
05:16PM 31.2975 -103.3294 280° West 401 461 29,200 -960 Descending Albuquerque Center
05:17PM 31.3150 -103.4600 279° West 404 465 28,100 -600 Descending Albuquerque Center
05:18PM 31.3344 -103.5942 280° West 414 476 28,000 -60 Descending Albuquerque Center
05:19PM 31.3528 -103.7272 279° West 416 479 28,000  Level Albuquerque Center
05:20PM 31.3747 -103.8772 280° West 410 472 28,000  Level Albuquerque Center
05:21PM 31.3928 -104.0061 279° West 406 467 28,000  Level Albuquerque Center
05:22PM 31.4097 -104.1350 279° West 404 465 28,000  Level Albuquerque Center
05:23PM 31.4281 -104.2636 280° West 402 463 28,000 -60 Level Albuquerque Center
05:24PM 31.4458 -104.3917 279° West 402 463 27,900  Descending Albuquerque Center
05:25PM 31.4597 -104.5203 277° West 401 461 28,000  Climbing Albuquerque Center
05:26PM 31.4767 -104.6742 277° West 400 460 28,000  Level Albuquerque Center
05:27PM 31.4900 -104.8042 277° West 403 464 28,000 -360 Level Albuquerque Center
05:28PM 31.5036 -104.9322 277° West 401 461 27,300 -1,320 Descending Albuquerque Center
05:29PM 31.5169 -105.0653 277° West 408 470 25,400 -1,980 Descending Albuquerque Center
05:30PM 31.5297 -105.1936 277° West 406 467 23,300 -2,280 Descending Albuquerque Center
05:31PM 31.5447 -105.3433 277° West 392 451 20,800 -2,340 Descending Albuquerque Center
05:32PM 31.5531 -105.4617 275° West 382 440 18,700 -2,160 Descending Albuquerque Center
05:32PM 31.5558 -105.4667 303° West 385 443 18,600 -2,340 Descending Albuquerque Center
05:33PM 31.5564 -105.4908 272° West 381 438 18,200 -2,280 Descending Albuquerque Center
05:34PM 31.5689 -105.6125 277° West 377 434 16,000 -1,920 Descending Albuquerque Center
05:35PM 31.5817 -105.7267 278° West 354 407 14,400 -1,500 Descending Albuquerque Center
05:36PM 31.5969 -105.8172 281° West 356 410 13,100 -1,500 Descending Albuquerque Center
05:36PM 31.6067 -105.8375 299° West 361 415 12,900 -1,800 Descending Albuquerque Center
05:37PM 31.6469 -105.9164 301° West 353 406 11,300 -1,800 Descending Albuquerque Center
05:37PM 31.6547 -105.9353 296° West 343 395 11,100 -1,920 Descending Albuquerque Center
05:38PM 31.6964 -106.0178 301° West 296 341 9,400 -1,680 Descending Albuquerque Center
05:38PM 31.6956 -106.0172 150° Southeast 278 320 9,400 -2,280 Level Albuquerque Center
05:39PM 31.7344 -106.0944 301° West 276 318 7,100 -2,400 Descending Albuquerque Center
05:39PM 31.7367 -106.1019 289° West 270 311 7,000 -1,560 Descending Albuquerque Center
05:40PM 31.7600 -106.1744 291° West 264 304 5,500 -900 Descending Albuquerque Center
05:41PM 31.7869 -106.2592 291° West 253 291 5,200 -420 Descending Albuquerque Center
05:41PM 31.7856 -106.2531 105° East 259 298 5,100 -540 Descending Albuquerque Center
05:42PM 31.7994 -106.3286 282° West 198 228 4,700 -420 Descending Albuquerque Center
05:42PM 31.7986 -106.3233 101° East 221 254 4,700 -660 Level Albuquerque Center
05:43PM 31.8022 -106.3689 275° West 157 181 4,000 -720 Descending Albuquerque Center